Latest Coastal Weather Observations for Low Rocky Point

IDT60701

Issued at 7:12 am EST Monday 21 August 2017 (issued every 10 minutes, with the page automatically refreshed every 10 minutes)

About coastal observations | Map of coastal stations | Coastal observations for TAS | Marine services | Other Formats
Station Details ID: 097080 Name: LOW ROCKY POINT Lat: -42.98 Lon: 145.50 Height: 34.0 m
Data from the previous 72 hours. | See also: Recent months at Low Rocky Point
Date/Time
EST
Temp
°C
Wind Pressure Rain since
9am
mm
Weather Cloud Vis
km
Sea
Height
m
Swell
Dir  Spd
kts
Gust
kts
hPa Trend Height
m
Period
s
Dir
21/07:00am 4.8 NNE 13 16 1014.8 - 1.0 - - - - - - -
21/06:30am 5.0 NNE 13 15 1014.7 - 1.0 - - - - - - -
21/06:00am 5.0 N 10 13 1014.7 - 1.0 - - - - - - -
21/05:30am 5.5 NNE 12 14 1014.8 - 1.0 - - - - - - -
21/05:00am 5.3 N 11 13 1014.9 - 1.0 - - - - - - -
21/04:30am 5.5 N 11 13 1015.1 - 1.0 - - - - - - -
21/04:00am 5.9 N 10 14 1015.3 - 1.0 - - - - - - -
21/03:30am 5.5 N 12 16 1015.4 - 1.0 - - - - - - -
21/03:00am 5.3 N 11 15 1015.8 - 1.0 - - - - - - -
21/02:30am 5.7 NNE 11 14 1015.9 - 1.0 - - - - - - -
21/02:00am 5.6 NNE 11 13 1016.0 - 1.0 - - - - - - -
21/01:30am 5.8 NNE 10 12 1016.3 - 1.0 - - - - - - -
21/01:00am 5.8 N 9 12 1016.6 - 1.0 - - - - - - -
21/12:30am 5.8 NNE 11 13 1016.5 - 1.0 - - - - - - -
21/12:00am 6.0 NNE 10 11 1016.7 - 1.0 - - - - - - -
 
Date/Time
EST
Temp
°C
Wind Pressure Rain since
9am
mm
Weather Cloud Vis
km
Sea
Height
m
Swell
Dir  Spd
kts
Gust
kts
hPa Trend Height
m
Period
s
Dir
20/11:30pm 6.4 N 11 13 1016.9 - 1.0 - - - - - - -
20/11:00pm 6.0 N 10 12 1017.3 - 1.0 Recent precip. - - - - - -
20/10:30pm 6.9 N 8 11 1017.5 - 1.0 - - - - - - -
20/10:00pm 6.9 N 10 13 1018.0 - 0.4 - - - - - - -
20/09:30pm 6.7 N 12 16 1017.9 - 0.4 - - - - - - -
20/09:00pm 6.9 N 11 14 1018.3 - 0.4 - - - - - - -
20/08:30pm 7.3 N 11 13 1018.4 - 0.4 - - - - - - -
20/08:00pm 7.6 N 10 12 1018.4 - 0.4 Recent precip. - - - - - -
20/07:30pm 8.5 N 11 13 1018.0 - 0.0 - - - - - - -
20/07:00pm 8.5 N 9 11 1018.0 - 0.0 - - - - - - -
20/06:30pm 9.7 NW 10 12 1017.9 - 0.0 - - - - - - -
20/06:00pm 9.8 NW 11 14 1018.0 - 0.0 - - - - - - -
20/05:30pm 9.7 NW 12 14 1018.0 - 0.0 - - - - - - -
20/05:00pm 9.9 NW 13 16 1018.3 - 0.0 - - - - - - -
20/04:30pm 10.1 WNW 11 14 1018.3 - 0.0 - - - - - - -
20/04:00pm 10.5 NW 11 15 1018.5 - 0.0 - - - - - - -
20/03:30pm 10.5 NW 12 15 1018.7 - 0.0 - - - - - - -
20/03:00pm 11.7 NW 11 14 1019.0 - 0.0 - - - - - - -
20/02:30pm 10.9 N 7 9 1019.1 - 0.0 - - - - - - -
20/02:00pm 9.4 NW 11 14 1019.6 - 0.0 - - - - - - -
20/01:30pm 10.2 NW 17 19 1019.7 - 0.0 - - - - - - -
20/01:00pm 10.0 WNW 13 16 1020.1 - 0.0 - - - - - - -
20/12:30pm 9.2 NNW 10 16 1020.4 - 0.0 - - - - - - -
20/12:00pm 9.4 NW 15 20 1021.2 - 0.0 - - - - - - -
20/11:30am 9.7 NNW 10 13 1021.5 - 0.0 - - - - - - -
20/11:00am 10.8 NNW 11 15 1022.0 - 0.0 - - - - - - -
20/10:30am 9.8 NNW 11 14 1022.2 - 0.0 - - - - - - -
20/10:00am 8.4 NNW 11 14 1022.4 - 0.0 - - - - - - -
20/09:30am 8.7 N 9 13 1022.3 - 0.0 - - - - - - -
20/09:00am 6.5 N 8 11 1022.5 - 5.8 Recent precip. - - - - - -
20/08:30am 6.5 NNW 5 7 1022.6 - 5.8 - - - - - - -
20/08:00am 6.2 N 10 12 1022.5 - 5.4 - - - - - - -
20/07:30am 5.3 NNE 10 12 1022.4 - 5.4 - - - - - - -
20/07:00am 5.5 NNE 10 13 1022.4 - 5.4 Recent precip. - - - - - -
20/06:30am 6.6 NW 6 11 1022.2 - 5.0 - - - - - - -
20/06:00am 5.5 N 11 14 1022.3 - 3.6 Recent precip. - - - - - -
20/05:30am 5.9 N 11 14 1022.3 - 3.6 - - - - - - -
20/05:00am 5.5 N 11 14 1022.5 - 2.0 Recent precip. - - - - - -
20/04:30am 5.6 N 7 11 1022.6 - 2.0 - - - - - - -
20/04:00am 6.0 N 10 15 1022.6 - 1.2 - - - - - - -
20/03:30am 8.9 WNW 16 20 1022.6 - 1.2 - - - - - - -
20/03:00am 8.5 WNW 16 19 1022.7 - 1.2 - - - - - - -
20/02:30am 7.6 NW 20 23 1022.9 - 1.2 - - - - - - -
20/02:00am 8.1 WNW 16 19 1023.2 - 1.2 Recent precip. - - - - - -
20/01:30am 7.9 WNW 17 25 1023.4 - 1.0 - - - - - - -
20/01:18am 9.2 WNW 17 29 1023.3 - 0.6 - - - - - - -
20/01:00am 8.8 NW 17 20 1023.5 - 0.6 - - - - - - -
20/12:30am 8.9 W 15 21 1023.6 - 0.6 - - - - - - -
20/12:00am 9.2 WNW 15 19 1023.8 - 0.6 - - - - - - -
 
Date/Time
EST
Temp
°C
Wind Pressure Rain since
9am
mm
Weather Cloud Vis
km
Sea
Height
m
Swell
Dir  Spd
kts
Gust
kts
hPa Trend Height
m
Period
s
Dir
19/11:30pm 9.3 WNW 16 21 1023.8 - 0.6 - - - - - - -
19/11:00pm 9.2 WNW 17 22 1023.8 - 0.6 - - - - - - -
19/10:30pm 9.2 WNW 17 20 1023.9 - 0.6 - - - - - - -
19/10:00pm 9.1 WNW 15 17 1024.0 - 0.6 - - - - - - -
19/09:30pm 8.9 WNW 13 16 1023.9 - 0.6 - - - - - - -
19/09:00pm 8.6 WNW 13 16 1024.1 - 0.6 - - - - - - -
19/08:30pm 8.5 W 10 13 1024.0 - 0.6 - - - - - - -
19/08:00pm 8.6 W 10 13 1024.2 - 0.6 - - - - - - -
19/07:30pm 8.5 W 9 14 1024.2 - 0.6 - - - - - - -
19/07:00pm 7.6 W 7 9 1024.5 - 0.6 - - - - - - -
19/06:30pm 8.7 W 11 14 1024.5 - 0.6 - - - - - - -
19/06:00pm 8.5 WSW 10 15 1024.6 - 0.6 - - - - - - -
19/05:30pm 8.6 W 12 15 1024.3 - 0.6 - - - - - - -
19/05:00pm 8.8 W 13 16 1024.4 - 0.6 - - - - - - -
19/04:30pm 9.3 W 11 17 1024.3 - 0.6 - - - - - - -
19/04:00pm 8.9 WSW 10 14 1024.4 - 0.6 Recent precip. - - - - - -
19/03:30pm 9.9 SW 11 18 1024.3 - 0.6 - - - - - - -
19/03:00pm 8.8 W 11 20 1024.4 - 0.4 - - - - - - -
19/02:30pm 8.7 WNW 17 21 1024.3 - 0.4 - - - - - - -
19/02:00pm 9.5 WSW 13 19 1024.3 - 0.4 - - - - - - -
19/01:30pm 10.5 WSW 11 17 1024.1 - 0.4 - - - - - - -
19/01:00pm 9.5 WSW 12 17 1024.2 - 0.4 - - - - - - -
19/12:30pm 8.1 WSW 12 18 1024.3 - 0.4 - - - - - - -
19/12:00pm 8.8 SW 7 14 1024.4 - 0.4 Recent precip. - - - - - -
19/11:30am 7.1 W 12 22 1024.5 - 0.4 - - - - - - -
19/11:00am 7.2 WNW 13 16 1024.7 - 0.0 - - - - - - -
19/10:30am 8.6 WSW 11 15 1024.5 - 0.0 - - - - - - -
19/10:00am 8.3 WSW 9 12 1024.6 - 0.0 - - - - - - -
19/09:30am 7.6 WSW 9 13 1024.4 - 0.0 - - - - - - -
19/09:00am 7.7 WSW 16 23 1024.2 - 0.8 - - - - - - -
19/08:48am 7.6 WSW 15 26 1024.1 - 0.8 - - - - - - -
19/08:30am 7.7 WSW 9 13 1023.9 - 0.8 - - - - - - -
19/08:00am 7.9 WSW 11 17 1023.6 - 0.8 - - - - - - -
19/07:30am 7.3 SSW 9 13 1023.1 - 0.8 - - - - - - -
19/07:00am 6.4 SSW 11 16 1022.7 - 0.8 - - - - - - -
19/06:30am 4.5 NE 5 8 1022.2 - 0.8 - - - - - - -
19/06:00am 4.5 NE 6 9 1021.9 - 0.8 - - - - - - -
19/05:30am 4.8 ENE 6 10 1021.6 - 0.8 - - - - - - -
19/05:00am 6.2 SSE 8 13 1021.4 - 0.8 - - - - - - -
19/04:30am 6.4 S 7 16 1021.0 - 0.8 - - - - - - -
19/04:00am 5.9 SSE 12 16 1021.0 - 0.8 - - - - - - -
19/03:30am 6.5 S 12 21 1020.7 - 0.8 - - - - - - -
19/03:00am 6.2 S 8 11 1020.6 - 0.8 - - - - - - -
19/02:30am 6.1 S 8 23 1020.4 - 0.8 - - - - - - -
19/02:00am 6.8 S 13 17 1020.2 - 0.8 - - - - - - -
19/01:30am 6.6 S 14 19 1019.9 - 0.8 - - - - - - -
19/01:00am 6.8 S 13 19 1019.8 - 0.8 - - - - - - -
19/12:30am 6.7 S 18 24 1019.2 - 0.8 - - - - - - -
19/12:00am 6.9 S 15 21 1019.0 - 0.8 - - - - - - -
 
Date/Time
EST
Temp
°C
Wind Pressure Rain since
9am
mm
Weather Cloud Vis
km
Sea
Height
m
Swell
Dir  Spd
kts
Gust
kts
hPa Trend Height
m
Period
s
Dir
18/11:30pm 7.0 S 17 23 1018.6 - 0.8 - - - - - - -
18/11:00pm 7.1 S 17 22 1018.4 - 0.8 - - - - - - -
18/10:30pm 7.1 S 14 19 1017.9 - 0.8 - - - - - - -
18/10:00pm 6.8 S 10 13 1018.0 - 0.8 Recent precip. - - - - - -
18/09:30pm 7.1 S 18 27 1017.4 - 0.8 - - - - - - -
18/09:29pm 7.1 S 17 27 1017.4 - 0.6 - - - - - - -
18/09:00pm 7.2 SSW 15 21 1017.1 - 0.6 - - - - - - -
18/08:30pm 7.3 S 18 23 1016.5 - 0.6 - - - - - - -
18/08:00pm 7.5 S 17 24 1016.1 - 0.6 - - - - - - -
18/07:30pm 7.2 S 17 25 1015.5 - 0.6 - - - - - - -
18/07:00pm 7.4 S 19 26 1015.0 - 0.6 - - - - - - -
18/06:30pm 7.3 S 17 23 1014.5 - 0.6 - - - - - - -
18/06:00pm 7.2 S 17 23 1013.8 - 0.6 - - - - - - -
18/05:30pm 7.3 S 20 27 1013.0 - 0.6 - - - - - - -
18/05:00pm 7.5 S 20 27 1012.2 - 0.6 - - - - - - -
18/04:30pm 7.8 S 19 25 1011.4 - 0.6 - - - - - - -
18/04:00pm 7.1 S 18 24 1010.8 - 0.6 Recent precip. - - - - - -
18/03:30pm 7.0 S 17 22 1010.1 - 0.6 - - - - - - -
18/03:00pm 6.5 SE 19 29 1009.7 - 0.4 - - - - - - -
18/02:30pm 7.9 SSE 18 24 1008.9 - 0.4 - - - - - - -
18/02:11pm 7.4 SSE 20 26 1008.4 - 0.4 - - - - - - -
18/02:00pm 7.6 S 14 27 1008.4 - 0.4 - - - - - - -
18/01:54pm 7.7 SSE 18 27 1008.3 - 0.4 - - - - - - -
18/01:30pm 8.7 SSE 19 25 1007.9 - 0.4 - - - - - - -
18/01:00pm 7.9 S 19 26 1007.4 - 0.4 - - - - - - -
18/12:30pm 8.3 SSE 19 26 1007.0 - 0.4 - - - - - - -
18/12:10pm 8.9 S 18 28 1006.8 - 0.4 - - - - - - -
18/12:00pm 7.5 S 17 23 1006.8 - 0.4 - - - - - - -
18/11:40am 7.9 SSW 18 28 1006.8 - 0.4 - - - - - - -
18/11:30am 8.5 S 19 27 1006.5 - 0.4 - - - - - - -
18/11:00am 8.4 S 21 29 1005.9 - 0.4 - - - - - - -
18/10:47am 7.0 S 20 30 1005.7 - 0.4 - - - - - - -
18/10:30am 6.7 S 22 29 1005.5 - 0.4 - - - - - - -
18/10:10am 7.3 S 21 31 1004.8 - 0.4 - - - - - - -
18/10:00am 6.7 S 19 27 1004.6 - 0.4 Recent precip. - - - - - -
18/09:49am 6.4 S 16 26 1004.4 - 0.4 - - - - - - -
18/09:30am 6.0 SSW 14 22 1004.3 - 0.4 - - - - - - -
18/09:00am 5.7 SSW 14 22 1003.7 - 11.6 Recent precip. - - - - - -
18/08:30am 6.2 SSW 19 30 1002.9 - 11.0 - - - - - - -
18/08:19am 6.1 S 16 26 1002.7 - 11.0 - - - - - - -
18/08:00am 6.9 WSW 17 24 1002.2 - 11.0 Rain - - - - - -
18/07:30am 6.7 S 14 19 1001.3 - 10.8 - - - - - - -

Other Formats:

Comma delimited format used in spreadsheet applications
http://www.bom.gov.au/fwo/IDT60701/IDT60701.95961.axf

JavaScript Object Notation format (JSON) in row-major order
http://www.bom.gov.au/fwo/IDT60701/IDT60701.95961.json